createdAt,value
2023-04-16T00:02:04.229Z,9.23
2023-04-16T00:04:34.173Z,13.38
2023-04-16T00:07:02.810Z,11.18
2023-04-16T00:09:30.042Z,19.05
2023-04-16T00:11:57.031Z,12.05
2023-04-16T00:14:24.052Z,14.05
2023-04-16T00:16:51.339Z,11.68
2023-04-16T00:19:18.645Z,11.77
2023-04-16T00:21:45.893Z,15.82
2023-04-16T00:24:13.346Z,10.35
2023-04-16T00:26:40.999Z,12.30
2023-04-16T00:29:08.540Z,18.75
2023-04-16T00:31:37.194Z,12.85
2023-04-16T00:34:04.426Z,16.38
2023-04-16T00:36:31.697Z,15.63
2023-04-16T00:38:58.883Z,11.85
2023-04-16T00:41:26.962Z,14.25
2023-04-16T00:43:54.167Z,17.10
2023-04-16T00:46:23.975Z,13.88
2023-04-16T00:48:54.299Z,18.95
2023-04-16T00:51:22.615Z,15.80
2023-04-16T00:53:49.931Z,15.98
2023-04-16T00:56:17.971Z,11.40
2023-04-16T00:58:45.318Z,12.55
2023-04-16T01:01:14.460Z,14.88
2023-04-16T01:03:49.138Z,16.48
2023-04-16T01:06:18.383Z,15.20
2023-04-16T01:08:46.857Z,19.70
2023-04-16T01:11:15.695Z,14.00
2023-04-16T01:13:42.922Z,15.75
2023-04-16T01:16:12.502Z,16.52
2023-04-16T01:18:39.825Z,15.43
2023-04-16T01:21:07.254Z,19.73
2023-04-16T01:23:34.537Z,16.40
2023-04-16T01:26:02.678Z,16.48
2023-04-16T01:28:30.696Z,14.30
2023-04-16T01:30:57.777Z,15.77
2023-04-16T01:33:37.722Z,19.02
2023-04-16T01:36:04.881Z,18.10
2023-04-16T01:38:31.977Z,17.95
2023-04-16T01:40:59.669Z,18.50
2023-04-16T01:43:26.781Z,17.35
2023-04-16T01:46:15.129Z,19.45
2023-04-16T01:48:42.956Z,21.00
2023-04-16T01:51:10.203Z,22.98
2023-04-16T01:53:37.485Z,17.60
2023-04-16T01:56:05.050Z,18.73
2023-04-16T01:58:33.672Z,20.15
2023-04-16T02:01:01.108Z,20.20
2023-04-16T02:03:28.465Z,17.15
2023-04-16T02:05:55.662Z,17.02
2023-04-16T02:08:23.741Z,18.13
2023-04-16T02:10:50.951Z,18.38
2023-04-16T02:13:18.129Z,17.90
2023-04-16T02:15:49.492Z,19.90
2023-04-16T02:18:21.465Z,19.13
2023-04-16T02:20:49.800Z,18.42
2023-04-16T02:23:17.779Z,21.08
2023-04-16T02:25:47.439Z,20.55
2023-04-16T02:28:17.194Z,18.42
2023-04-16T02:30:46.203Z,19.58
2023-04-16T02:33:15.534Z,23.10
2023-04-16T02:35:53.217Z,22.60
2023-04-16T02:38:20.290Z,24.50
2023-04-16T02:40:47.274Z,24.42
2023-04-16T02:43:14.206Z,20.88
2023-04-16T02:45:41.504Z,26.02
2023-04-16T02:48:09.667Z,24.35
2023-04-16T02:50:36.706Z,25.13
2023-04-16T02:53:04.385Z,27.58
2023-04-16T02:55:31.426Z,26.80
2023-04-16T02:57:58.411Z,25.13
2023-04-16T03:00:25.658Z,27.10
2023-04-16T03:02:52.838Z,26.83
2023-04-16T03:05:20.041Z,29.13
2023-04-16T03:07:47.087Z,29.35
2023-04-16T03:10:15.464Z,28.48
2023-04-16T03:12:42.509Z,28.63
2023-04-16T03:15:10.484Z,29.38
2023-04-16T03:17:37.457Z,22.77
2023-04-16T03:20:05.489Z,29.05
2023-04-16T03:22:33.701Z,25.63
2023-04-16T03:25:00.710Z,27.38
2023-04-16T03:27:27.706Z,29.48
2023-04-16T03:29:55.204Z,32.55
2023-04-16T03:32:22.372Z,26.08
2023-04-16T03:34:49.379Z,26.00
2023-04-16T03:37:16.934Z,29.10
2023-04-16T03:39:44.364Z,27.25
2023-04-16T03:42:12.056Z,26.75
2023-04-16T03:44:39.064Z,31.08
2023-04-16T03:47:06.114Z,30.88
2023-04-16T03:49:33.146Z,30.02
2023-04-16T03:52:00.273Z,31.75
2023-04-16T03:54:27.339Z,27.98
2023-04-16T03:57:06.179Z,26.67
2023-04-16T03:59:33.743Z,28.63
2023-04-16T04:02:00.940Z,27.83
2023-04-16T04:04:28.203Z,27.40
2023-04-16T04:06:55.606Z,25.25
2023-04-16T04:09:23.708Z,27.35
2023-04-16T04:11:50.930Z,32.47
2023-04-16T04:14:18.118Z,25.92
2023-04-16T04:16:45.157Z,27.38
2023-04-16T04:19:12.564Z,30.67
2023-04-16T04:21:39.758Z,31.95
2023-04-16T04:24:06.963Z,32.70
2023-04-16T04:26:34.753Z,32.28
2023-04-16T04:29:01.758Z,33.88
2023-04-16T04:31:30.311Z,35.30
2023-04-16T04:33:57.369Z,31.23
2023-04-16T04:36:24.418Z,38.10
2023-04-16T04:38:51.807Z,31.60
2023-04-16T04:41:21.361Z,28.95
2023-04-16T04:43:48.275Z,30.27
2023-04-16T04:46:16.711Z,36.58
2023-04-16T04:48:43.745Z,33.78
2023-04-16T04:51:10.966Z,31.77
2023-04-16T04:53:37.990Z,40.53
2023-04-16T04:56:12.377Z,35.38
2023-04-16T04:58:41.478Z,38.10
2023-04-16T05:01:08.579Z,34.55
2023-04-16T05:03:36.077Z,37.80
2023-04-16T05:06:03.154Z,34.53
2023-04-16T05:08:30.151Z,34.38
2023-04-16T05:10:57.093Z,38.03
2023-04-16T05:13:24.377Z,32.95
2023-04-16T05:15:51.382Z,35.70
2023-04-16T05:18:18.398Z,36.08
2023-04-16T05:20:45.424Z,35.78
2023-04-16T05:23:12.475Z,36.00
2023-04-16T05:25:39.518Z,42.25
2023-04-16T05:28:07.048Z,36.47
2023-04-16T05:30:34.123Z,38.22
2023-04-16T05:33:01.214Z,35.80
2023-04-16T05:35:28.257Z,35.53
2023-04-16T05:37:55.420Z,35.85
2023-04-16T05:40:22.431Z,35.00
2023-04-16T05:42:49.537Z,34.10
2023-04-16T05:45:16.553Z,36.72
2023-04-16T05:47:43.856Z,38.33
2023-04-16T05:50:11.248Z,39.13
2023-04-16T05:52:38.698Z,38.38
2023-04-16T05:55:07.213Z,35.53
2023-04-16T05:57:34.186Z,32.53
2023-04-16T06:00:01.133Z,42.60
2023-04-16T06:02:30.534Z,38.75
2023-04-16T06:04:57.620Z,36.15
2023-04-16T06:07:24.589Z,35.97
2023-04-16T06:09:51.619Z,32.10
2023-04-16T06:12:18.612Z,33.92
2023-04-16T06:14:45.572Z,36.13
2023-04-16T06:17:12.554Z,32.95
2023-04-16T06:19:39.605Z,34.80
2023-04-16T06:22:07.142Z,34.35
2023-04-16T06:24:34.180Z,34.65
2023-04-16T06:27:01.119Z,34.67
2023-04-16T06:29:40.716Z,36.17
2023-04-16T06:32:08.554Z,34.97
2023-04-16T06:34:36.141Z,34.38
2023-04-16T06:37:03.117Z,34.22
2023-04-16T06:39:30.947Z,35.95
2023-04-16T06:41:58.024Z,34.80
2023-04-16T06:44:25.041Z,38.42
2023-04-16T06:46:51.998Z,42.13
2023-04-16T06:49:18.974Z,35.25
2023-04-16T06:51:46.044Z,34.80
2023-04-16T06:54:13.042Z,37.30
2023-04-16T06:56:40.024Z,36.90
2023-04-16T06:59:07.852Z,38.63
2023-04-16T07:01:35.536Z,38.92
2023-04-16T07:04:03.695Z,35.35
2023-04-16T07:06:31.876Z,38.15
2023-04-16T07:08:58.907Z,32.65
2023-04-16T07:11:26.548Z,35.15
2023-04-16T07:13:54.868Z,37.72
2023-04-16T07:16:21.897Z,33.92
2023-04-16T07:18:49.729Z,34.60
2023-04-16T07:21:16.820Z,34.13
2023-04-16T07:23:43.826Z,32.35
2023-04-16T07:26:11.844Z,32.05
2023-04-16T07:28:38.838Z,35.42
2023-04-16T07:31:06.108Z,34.60
2023-04-16T07:33:33.200Z,35.25
2023-04-16T07:36:00.234Z,31.55
2023-04-16T07:38:27.206Z,26.73
2023-04-16T07:40:56.754Z,30.52
2023-04-16T07:43:23.800Z,31.42
2023-04-16T07:45:50.864Z,34.92
2023-04-16T07:48:17.899Z,30.38
2023-04-16T07:50:45.051Z,27.08
2023-04-16T07:53:12.069Z,29.17
2023-04-16T07:55:39.052Z,26.45
2023-04-16T07:58:07.803Z,27.95
2023-04-16T08:00:35.275Z,29.63
2023-04-16T08:03:02.463Z,34.88
2023-04-16T08:05:29.576Z,29.33
2023-04-16T08:07:56.628Z,25.17
2023-04-16T08:10:23.717Z,26.23
2023-04-16T08:12:53.820Z,24.48
2023-04-16T08:15:21.074Z,28.08
2023-04-16T08:17:48.073Z,23.70
2023-04-16T08:20:17.611Z,23.77
2023-04-16T08:22:46.729Z,27.75
2023-04-16T08:25:14.787Z,25.02
2023-04-16T08:27:41.827Z,23.75
2023-04-16T08:30:08.950Z,27.17
2023-04-16T08:32:35.920Z,26.88
2023-04-16T08:35:02.999Z,25.70
2023-04-16T08:37:29.957Z,23.30
2023-04-16T08:39:56.972Z,28.63
2023-04-16T08:42:44.761Z,24.85
2023-04-16T08:45:17.662Z,25.90
2023-04-16T08:47:52.806Z,23.75
2023-04-16T08:50:26.048Z,25.55
2023-04-16T08:53:06.699Z,25.60
2023-04-16T08:55:51.365Z,22.67
2023-04-16T08:58:22.809Z,23.58
2023-04-16T09:00:51.051Z,22.67
2023-04-16T09:03:21.557Z,23.17
2023-04-16T09:05:50.470Z,21.05
2023-04-16T09:08:18.217Z,24.67
2023-04-16T09:10:45.794Z,23.15
2023-04-16T09:13:16.523Z,24.60
2023-04-16T09:15:44.414Z,23.98
2023-04-16T09:18:12.222Z,22.58
2023-04-16T09:20:39.737Z,20.27
2023-04-16T09:23:06.669Z,23.52
2023-04-16T09:25:38.469Z,24.27
2023-04-16T09:28:05.800Z,25.90
2023-04-16T09:30:33.446Z,26.52
2023-04-16T09:33:12.427Z,21.90
2023-04-16T09:35:48.332Z,25.90
2023-04-16T09:38:15.958Z,24.55
2023-04-16T09:40:43.189Z,26.33
2023-04-16T09:43:18.984Z,26.05
2023-04-16T09:45:55.111Z,27.00
2023-04-16T09:48:33.744Z,24.25
2023-04-16T09:51:01.297Z,21.92
2023-04-16T09:53:31.463Z,26.15
2023-04-16T09:56:00.374Z,22.77
2023-04-16T09:58:28.551Z,23.00
2023-04-16T10:01:01.564Z,21.88
2023-04-16T10:03:34.830Z,22.17
2023-04-16T10:06:20.589Z,22.27
2023-04-16T10:08:53.849Z,19.05
2023-04-16T10:11:21.366Z,19.27
2023-04-16T10:13:49.097Z,22.98
2023-04-16T10:16:16.660Z,22.10
2023-04-16T10:18:46.116Z,20.15
2023-04-16T10:21:13.130Z,21.20
2023-04-16T10:23:40.595Z,22.55
2023-04-16T10:26:08.475Z,12.13
2023-04-16T10:28:36.261Z,16.60
2023-04-16T10:31:09.397Z,20.20
2023-04-16T10:33:44.220Z,16.17
2023-04-16T10:36:24.553Z,13.13
2023-04-16T10:38:53.007Z,14.75
2023-04-16T10:41:21.092Z,12.65
2023-04-16T10:43:50.944Z,17.25
2023-04-16T10:46:38.954Z,14.90
2023-04-16T10:49:22.808Z,14.75
2023-04-16T10:51:54.329Z,16.40
2023-04-16T10:54:29.226Z,17.55
2023-04-16T10:57:00.721Z,14.25
2023-04-16T10:59:33.655Z,17.10
2023-04-16T11:02:07.433Z,12.35
2023-04-16T11:07:16.474Z,15.25
2023-04-16T11:10:02.060Z,15.38
2023-04-16T11:12:47.300Z,14.90
2023-04-16T11:15:16.153Z,13.75
2023-04-16T11:17:50.610Z,12.38
2023-04-16T11:20:21.592Z,17.73
2023-04-16T11:22:50.653Z,12.13
2023-04-16T11:25:31.508Z,20.02
2023-04-16T11:27:59.179Z,13.13
2023-04-16T11:30:35.511Z,12.45
2023-04-16T11:33:16.503Z,13.90
2023-04-16T11:35:43.571Z,21.42
2023-04-16T11:38:10.612Z,14.05
2023-04-16T11:40:37.566Z,15.05
2023-04-16T11:43:16.325Z,16.80
2023-04-16T11:46:10.267Z,16.67
2023-04-16T11:48:55.532Z,17.50
2023-04-16T11:51:23.510Z,12.65
2023-04-16T11:53:53.198Z,15.23
2023-04-16T11:56:30.710Z,14.20
2023-04-16T11:59:18.002Z,13.52
2023-04-16T12:01:51.456Z,15.02
2023-04-16T12:04:21.536Z,17.25
2023-04-16T12:07:12.936Z,18.00
2023-04-16T12:09:44.149Z,16.13
2023-04-16T12:12:32.416Z,13.68
2023-04-16T12:15:03.807Z,17.98
2023-04-16T12:17:33.841Z,19.02
2023-04-16T12:20:07.907Z,18.77
2023-04-16T12:22:38.718Z,16.63
2023-04-16T12:25:10.734Z,18.77
2023-04-16T12:27:51.328Z,17.60
2023-04-16T12:30:26.080Z,18.60
2023-04-16T12:33:17.154Z,18.63
2023-04-16T12:35:45.015Z,17.75
2023-04-16T12:38:12.396Z,20.73
2023-04-16T12:40:39.381Z,24.88
2023-04-16T12:43:06.575Z,19.73
2023-04-16T12:45:33.578Z,22.95
2023-04-16T12:48:00.678Z,23.05
2023-04-16T12:50:28.854Z,23.15
2023-04-16T12:52:57.405Z,24.98
2023-04-16T12:55:25.534Z,20.85
2023-04-16T12:57:55.618Z,22.27
2023-04-16T13:00:23.028Z,19.63
2023-04-16T13:02:50.190Z,26.35
2023-04-16T13:05:19.250Z,20.73
2023-04-16T13:07:46.526Z,21.75
2023-04-16T13:10:13.825Z,22.33
2023-04-16T13:12:41.007Z,20.38
2023-04-16T13:15:09.333Z,27.70
2023-04-16T13:17:36.382Z,20.70
2023-04-16T13:20:03.708Z,24.85
2023-04-16T13:22:30.923Z,21.40
2023-04-16T13:24:57.876Z,19.20
2023-04-16T13:27:24.908Z,22.17
2023-04-16T13:29:51.900Z,21.60
2023-04-16T13:32:19.387Z,21.60
2023-04-16T13:34:46.496Z,25.10
2023-04-16T13:37:13.606Z,21.98
2023-04-16T13:39:40.634Z,23.90
2023-04-16T13:42:07.606Z,17.25
2023-04-16T13:44:34.864Z,18.52
2023-04-16T13:47:01.894Z,26.33
2023-04-16T13:49:28.928Z,21.75
2023-04-16T13:51:55.992Z,19.58
2023-04-16T13:54:22.883Z,23.50
2023-04-16T13:56:51.271Z,20.42
2023-04-16T13:59:18.730Z,20.02
2023-04-16T14:01:45.888Z,20.15
2023-04-16T14:04:12.929Z,27.20
2023-04-16T14:06:40.012Z,23.05
2023-04-16T14:09:06.985Z,25.80
2023-04-16T14:11:33.947Z,20.05
2023-04-16T14:14:00.920Z,23.17
2023-04-16T14:16:27.969Z,22.17
2023-04-16T14:18:54.990Z,19.92
2023-04-16T14:21:22.056Z,17.63
2023-04-16T14:23:49.595Z,23.73
2023-04-16T14:26:16.600Z,17.15
2023-04-16T14:28:44.790Z,18.20
2023-04-16T14:31:11.771Z,17.65
2023-04-16T14:33:38.767Z,17.98
2023-04-16T14:36:06.387Z,16.60
2023-04-16T14:38:36.157Z,19.45
2023-04-16T14:41:03.400Z,17.17
2023-04-16T14:43:30.902Z,16.90
2023-04-16T14:45:58.939Z,17.55
2023-04-16T14:48:27.339Z,15.98
2023-04-16T14:50:54.337Z,16.10
2023-04-16T14:53:23.840Z,18.75
2023-04-16T14:55:53.301Z,18.30
2023-04-16T14:58:20.452Z,20.17
2023-04-16T15:00:47.418Z,20.65
2023-04-16T15:03:14.883Z,19.05
2023-04-16T15:05:44.655Z,13.27
2023-04-16T15:08:11.676Z,19.45
2023-04-16T15:10:38.669Z,18.55
2023-04-16T15:13:05.896Z,17.02
2023-04-16T15:15:32.930Z,13.88
2023-04-16T15:18:00.401Z,15.35
2023-04-16T15:20:27.953Z,13.57
2023-04-16T15:22:55.185Z,18.27
2023-04-16T15:25:23.367Z,17.38
2023-04-16T15:27:50.306Z,16.88
2023-04-16T15:30:17.566Z,15.10
2023-04-16T15:32:45.308Z,18.52
2023-04-16T15:35:14.126Z,15.57
2023-04-16T15:37:41.085Z,17.58
2023-04-16T15:40:08.595Z,16.83
2023-04-16T15:42:35.618Z,13.45
2023-04-16T15:45:02.632Z,13.57
2023-04-16T15:47:29.721Z,13.23
2023-04-16T15:49:56.678Z,14.88
2023-04-16T15:52:23.668Z,15.23
2023-04-16T15:54:50.753Z,15.57
2023-04-16T15:57:17.708Z,13.43
2023-04-16T15:59:52.928Z,14.73
2023-04-16T16:02:31.908Z,16.98
2023-04-16T16:05:00.294Z,14.50
2023-04-16T16:07:27.336Z,12.85
2023-04-16T16:09:54.301Z,16.70
2023-04-16T16:12:21.626Z,16.95
2023-04-16T16:14:49.422Z,19.77
2023-04-16T16:17:16.650Z,15.98
2023-04-16T16:19:45.215Z,19.40
2023-04-16T16:22:13.966Z,21.67
2023-04-16T16:24:40.976Z,14.80
2023-04-16T16:27:07.993Z,15.15
2023-04-16T16:29:35.106Z,14.40
2023-04-16T16:32:02.119Z,18.50
2023-04-16T16:34:29.211Z,15.77
2023-04-16T16:36:56.306Z,15.75
2023-04-16T16:39:25.242Z,15.05
2023-04-16T16:41:52.769Z,15.85
2023-04-16T16:44:20.817Z,16.52
2023-04-16T16:46:48.088Z,16.20
2023-04-16T16:49:16.831Z,16.50
2023-04-16T16:51:49.894Z,15.85
2023-04-16T16:54:16.833Z,16.17
2023-04-16T16:56:43.933Z,15.60
2023-04-16T16:59:11.631Z,12.85
2023-04-16T17:01:38.978Z,15.77
2023-04-16T17:04:06.180Z,14.40
2023-04-16T17:06:33.594Z,18.38
2023-04-16T17:09:00.970Z,14.55
2023-04-16T17:11:29.253Z,17.77
2023-04-16T17:13:56.263Z,13.32
2023-04-16T17:16:23.952Z,17.98
2023-04-16T17:18:57.246Z,15.45
2023-04-16T17:21:24.971Z,17.08
2023-04-16T17:23:52.032Z,15.88
2023-04-16T17:26:19.081Z,13.23
2023-04-16T17:28:46.252Z,15.70
2023-04-16T17:31:13.285Z,18.52
2023-04-16T17:33:40.272Z,15.82
2023-04-16T17:36:08.094Z,15.63
2023-04-16T17:38:35.129Z,16.23
2023-04-16T17:41:02.167Z,15.82
2023-04-16T17:43:29.130Z,14.75
2023-04-16T17:45:57.229Z,18.85
2023-04-16T17:48:24.196Z,14.65
2023-04-16T17:50:51.143Z,16.92
2023-04-16T17:53:18.156Z,19.15
2023-04-16T17:55:56.543Z,18.42
2023-04-16T17:58:26.270Z,17.80
2023-04-16T18:00:53.316Z,19.00
2023-04-16T18:03:22.078Z,16.42
2023-04-16T18:05:49.435Z,17.77
2023-04-16T18:08:16.623Z,18.17
2023-04-16T18:10:43.645Z,20.33
2023-04-16T18:13:10.938Z,19.00
2023-04-16T18:15:38.403Z,21.40
2023-04-16T18:18:05.992Z,17.92
2023-04-16T18:20:33.297Z,19.33
2023-04-16T18:23:01.232Z,21.35
2023-04-16T18:25:34.491Z,21.73
2023-04-16T18:28:03.761Z,19.55
2023-04-16T18:30:30.892Z,21.33
2023-04-16T18:35:27.828Z,21.80
2023-04-16T18:37:54.755Z,23.38
2023-04-16T18:40:21.789Z,22.13
2023-04-16T18:42:48.803Z,20.40
2023-04-16T18:45:21.149Z,23.13
2023-04-16T18:47:50.253Z,23.95
2023-04-16T18:50:17.317Z,21.55
2023-04-16T18:52:44.440Z,22.00
2023-04-16T18:55:11.394Z,25.33
2023-04-16T18:57:38.439Z,23.08
2023-04-16T19:00:12.529Z,22.02
2023-04-16T19:02:40.121Z,23.63
2023-04-16T19:05:08.857Z,21.42
2023-04-16T19:07:37.026Z,20.33
2023-04-16T19:10:05.340Z,23.27
2023-04-16T19:12:32.552Z,21.83
2023-04-16T19:14:59.881Z,22.23
2023-04-16T19:17:26.961Z,20.35
2023-04-16T19:19:54.003Z,23.25
2023-04-16T19:22:21.116Z,23.45
2023-04-16T19:24:48.165Z,25.15
2023-04-16T19:27:15.689Z,21.45
2023-04-16T19:29:43.493Z,25.20
2023-04-16T19:32:10.810Z,26.50
2023-04-16T19:34:38.583Z,22.52
2023-04-16T19:37:05.720Z,23.25
2023-04-16T19:39:33.297Z,23.83
2023-04-16T19:42:01.754Z,26.92
2023-04-16T19:44:28.783Z,25.25
2023-04-16T19:46:56.246Z,28.52
2023-04-16T19:49:25.212Z,24.52
2023-04-16T19:51:52.631Z,27.42
2023-04-16T19:54:19.769Z,23.35
2023-04-16T19:56:51.629Z,24.52
2023-04-16T19:59:19.116Z,26.48
2023-04-16T20:01:46.789Z,26.77
2023-04-16T20:04:13.874Z,24.45
2023-04-16T20:06:40.914Z,25.75
2023-04-16T20:09:07.880Z,30.00
2023-04-16T20:11:35.499Z,26.80
2023-04-16T20:14:02.467Z,25.33
2023-04-16T20:16:30.137Z,26.77
2023-04-16T20:19:03.264Z,29.67
2023-04-16T20:23:59.526Z,29.35
2023-04-16T20:26:33.513Z,26.60
2023-04-16T20:29:00.852Z,26.00
2023-04-16T20:31:28.683Z,30.20
2023-04-16T20:33:55.785Z,26.27
2023-04-16T20:36:22.770Z,30.40
2023-04-16T20:38:51.109Z,28.50
2023-04-16T20:41:22.441Z,30.15
2023-04-16T20:43:50.295Z,29.02
2023-04-16T20:46:17.800Z,28.15
2023-04-16T20:48:44.977Z,27.83
2023-04-16T20:51:12.253Z,27.00
2023-04-16T20:53:39.314Z,29.42
2023-04-16T20:56:06.912Z,31.05
2023-04-16T20:58:33.984Z,31.30
2023-04-16T21:01:01.414Z,30.63
2023-04-16T21:03:28.586Z,28.13
2023-04-16T21:05:55.947Z,28.75
2023-04-16T21:08:23.956Z,26.92
2023-04-16T21:10:51.359Z,31.20
2023-04-16T21:13:20.662Z,30.55
2023-04-16T21:15:47.787Z,29.05
2023-04-16T21:18:14.937Z,29.25
2023-04-16T21:20:41.871Z,28.38
2023-04-16T21:23:08.876Z,29.50
2023-04-16T21:25:35.983Z,30.83
2023-04-16T21:28:02.957Z,33.15
2023-04-16T21:30:29.959Z,38.42
2023-04-16T21:32:56.935Z,36.72
2023-04-16T21:35:23.980Z,36.17
2023-04-16T21:37:50.929Z,31.63
2023-04-16T21:40:18.034Z,32.42
2023-04-16T21:42:45.086Z,34.20
2023-04-16T21:45:14.408Z,35.67
2023-04-16T21:47:41.486Z,35.92
2023-04-16T21:50:08.981Z,36.65
2023-04-16T21:52:40.565Z,34.03
2023-04-16T21:55:09.473Z,39.72
2023-04-16T21:57:36.456Z,39.75
2023-04-16T22:00:09.102Z,37.45
2023-04-16T22:02:36.436Z,33.40
2023-04-16T22:05:03.814Z,33.20
2023-04-16T22:07:30.804Z,34.47
2023-04-16T22:09:57.801Z,36.92
2023-04-16T22:12:24.985Z,33.90
2023-04-16T22:15:01.935Z,35.10
2023-04-16T22:17:30.155Z,32.88
2023-04-16T22:20:00.380Z,37.28
2023-04-16T22:22:27.410Z,32.40
2023-04-16T22:24:54.480Z,32.97
2023-04-16T22:27:21.890Z,32.33
2023-04-16T22:29:48.980Z,34.92
2023-04-16T22:32:16.445Z,32.33
2023-04-16T22:34:43.491Z,31.77
2023-04-16T22:37:10.749Z,31.45
2023-04-16T22:39:37.778Z,32.97
2023-04-16T22:42:04.906Z,32.65
2023-04-16T22:44:31.929Z,34.22
2023-04-16T22:46:59.180Z,30.70
2023-04-16T22:49:26.586Z,35.13
2023-04-16T22:51:53.589Z,30.60
2023-04-16T22:54:20.754Z,30.75
2023-04-16T22:56:48.572Z,35.10
2023-04-16T22:59:15.968Z,31.38
2023-04-16T23:01:43.111Z,30.48
2023-04-16T23:04:10.317Z,34.92
2023-04-16T23:06:37.423Z,31.42
2023-04-16T23:09:05.253Z,33.47
2023-04-16T23:11:32.371Z,33.28
2023-04-16T23:13:59.422Z,32.78
2023-04-16T23:16:27.244Z,34.72
2023-04-16T23:18:54.815Z,32.63
2023-04-16T23:21:22.916Z,33.75
2023-04-16T23:23:50.236Z,32.53
2023-04-16T23:26:17.214Z,33.38
2023-04-16T23:28:44.193Z,35.88
2023-04-16T23:31:11.281Z,31.77
2023-04-16T23:33:38.291Z,31.27
2023-04-16T23:36:05.878Z,31.75
2023-04-16T23:38:32.949Z,30.05
2023-04-16T23:41:00.114Z,30.98
2023-04-16T23:43:27.137Z,31.83
2023-04-16T23:45:54.123Z,29.35
2023-04-16T23:48:21.276Z,29.25
2023-04-16T23:50:48.370Z,28.65
2023-04-16T23:53:15.660Z,30.50
2023-04-16T23:55:42.683Z,29.35
2023-04-16T23:58:09.684Z,26.40
